Time;durP1;ratioP1;P1;durP2;ratioP2;P2;SDS_P1;SDS_P2;PMS_P1;PMS_P2;Temp;Humidity;BMP_temperature;BMP_pressure;BME280_temperature;BME280_humidity;BME280_pressure;Samples;Min_cycle;Max_cycle;Signal;HPM_P1;HPM_P2
2021/09/01 00:01:35;;;;;;;15.10;7.57;;;;;;;;;;5097956;28;20859;-73
2021/09/01 00:04:14;;;;;;;31.10;10.30;;;;;;;;;;5098031;28;20466;-73
2021/09/01 00:06:42;;;;;;;20.60;9.30;;;;;;;;;;5097871;28;20542;-73
2021/09/01 00:09:09;;;;;;;20.67;8.70;;;;;;;;;;5098180;28;20455;-73
2021/09/01 00:11:42;;;;;;;17.60;8.80;;;;;;;;;;5098330;28;20866;-73
2021/09/01 00:14:10;;;;;;;28.60;9.23;;;;;;;;;;5097452;28;20479;-73
2021/09/01 00:16:37;;;;;;;16.67;10.13;;;;;;;;;;5098005;28;20464;-74
2021/09/01 00:19:07;;;;;;;15.27;9.23;;;;;;;;;;5097444;28;20552;-74
2021/09/01 00:21:39;;;;;;;16.10;7.60;;;;;;;;;;5097144;28;20486;-73
2021/09/01 00:24:07;;;;;;;12.87;9.30;;;;;;;;;;5098103;28;20534;-73
2021/09/01 00:26:34;;;;;;;22.73;10.80;;;;;;;;;;5097926;28;20537;-73
2021/09/01 00:29:04;;;;;;;26.67;9.40;;;;;;;;;;5097550;28;20447;-73
2021/09/01 00:31:31;;;;;;;21.13;9.37;;;;;;;;;;5097539;28;20891;-73
2021/09/01 00:33:59;;;;;;;19.30;9.73;;;;;;;;;;5097617;28;20487;-73
2021/09/01 00:36:27;;;;;;;19.20;8.80;;;;;;;;;;5097502;28;20463;-73
2021/09/01 00:38:56;;;;;;;24.60;11.10;;;;;;;;;;5096819;28;20787;-73
2021/09/01 00:41:25;;;;;;;19.70;9.50;;;;;;;;;;5097474;28;20518;-73
2021/09/01 00:43:52;;;;;;;20.27;9.00;;;;;;;;;;5097431;28;20460;-73
2021/09/01 00:46:22;;;;;;;21.47;9.40;;;;;;;;;;5097204;28;20459;-73
2021/09/01 00:48:50;;;;;;;21.27;14.43;;;;;;;;;;5097161;28;20459;-73
2021/09/01 00:51:18;;;;;;;21.97;12.10;;;;;;;;;;5096678;28;20740;-73
2021/09/01 00:53:49;;;;;;;21.00;10.87;;;;;;;;;;5095952;28;20573;-73
2021/09/01 00:56:18;;;;;;;23.63;12.20;;;;;;;;;;5097516;28;20451;-73
2021/09/01 00:58:47;;;;;;;23.67;12.50;;;;;;;;;;5097091;28;20463;-73
2021/09/01 01:01:17;;;;;;;19.73;11.40;;;;;;;;;;5097231;28;20447;-73
2021/09/01 01:03:49;;;;;;;21.20;10.50;;;;;;;;;;5097347;28;20470;-73
2021/09/01 01:06:18;;;;;;;27.63;14.00;;;;;;;;;;5096655;28;20447;-73
2021/09/01 01:08:46;;;;;;;23.97;13.17;;;;;;;;;;5096830;28;20464;-73
2021/09/01 01:11:14;;;;;;;27.57;13.43;;;;;;;;;;5097049;28;20869;-73
2021/09/01 01:13:42;;;;;;;29.57;13.90;;;;;;;;;;5096550;28;20492;-73
2021/09/01 01:16:11;;;;;;;19.53;12.63;;;;;;;;;;5096470;28;20534;-73
2021/09/01 01:18:40;;;;;;;26.70;14.67;;;;;;;;;;5096286;28;20522;-72
2021/09/01 01:21:10;;;;;;;20.83;12.20;;;;;;;;;;5096362;28;20452;-73
2021/09/01 01:23:39;;;;;;;25.47;12.40;;;;;;;;;;5096635;28;20458;-74
2021/09/01 01:26:09;;;;;;;27.80;13.63;;;;;;;;;;5096476;28;20456;-73
2021/09/01 01:28:36;;;;;;;21.00;14.67;;;;;;;;;;5095678;28;20470;-74
2021/09/01 01:31:04;;;;;;;22.60;14.40;;;;;;;;;;5096283;28;20856;-73
2021/09/01 01:33:32;;;;;;;20.27;13.10;;;;;;;;;;5096095;28;20546;-73
2021/09/01 01:36:00;;;;;;;23.80;13.70;;;;;;;;;;5096543;28;20451;-73
2021/09/01 01:38:27;;;;;;;25.27;14.20;;;;;;;;;;5096653;28;20716;-73
2021/09/01 01:40:56;;;;;;;25.47;14.40;;;;;;;;;;5096026;28;20535;-73
2021/09/01 01:43:26;;;;;;;25.73;16.67;;;;;;;;;;5096144;28;20467;-73
2021/09/01 01:45:54;;;;;;;26.67;14.47;;;;;;;;;;5096304;28;20549;-73
2021/09/01 01:48:21;;;;;;;28.73;15.20;;;;;;;;;;5095938;28;20478;-73
2021/09/01 01:50:49;;;;;;;28.00;16.60;;;;;;;;;;5096873;28;20511;-73
2021/09/01 01:53:17;;;;;;;29.07;15.53;;;;;;;;;;5096144;28;20901;-73
2021/09/01 01:55:44;;;;;;;28.13;17.87;;;;;;;;;;5096040;28;20727;-73
2021/09/01 01:58:12;;;;;;;26.40;17.87;;;;;;;;;;5095142;28;20462;-73
2021/09/01 02:00:41;;;;;;;34.47;19.03;;;;;;;;;;5095726;28;20772;-73
2021/09/01 02:03:09;;;;;;;28.77;16.20;;;;;;;;;;5095875;28;20549;-73
2021/09/01 02:05:37;;;;;;;23.30;14.47;;;;;;;;;;5096306;28;20851;-73
2021/09/01 02:08:05;;;;;;;26.13;17.30;;;;;;;;;;5095889;28;20447;-73
2021/09/01 02:10:33;;;;;;;33.13;18.37;;;;;;;;;;5095964;28;20451;-73
2021/09/01 02:13:00;;;;;;;35.50;18.47;;;;;;;;;;5095517;28;20463;-73
2021/09/01 02:15:28;;;;;;;29.43;19.03;;;;;;;;;;5095871;28;20578;-74
2021/09/01 02:17:57;;;;;;;28.17;17.40;;;;;;;;;;5095694;28;20479;-73
2021/09/01 02:20:25;;;;;;;28.00;17.60;;;;;;;;;;5095822;28;20781;-73
2021/09/01 02:22:53;;;;;;;31.10;18.50;;;;;;;;;;5095342;28;20507;-73
2021/09/01 02:25:22;;;;;;;31.50;18.43;;;;;;;;;;5096240;28;20729;-73
2021/09/01 02:27:50;;;;;;;36.17;17.33;;;;;;;;;;5095996;28;20525;-73
2021/09/01 02:30:19;;;;;;;33.47;19.37;;;;;;;;;;5096548;28;20791;-73
2021/09/01 02:32:47;;;;;;;28.43;17.17;;;;;;;;;;5096050;28;20455;-73
2021/09/01 02:35:16;;;;;;;33.57;16.70;;;;;;;;;;5095201;28;21034;-73
2021/09/01 02:37:43;;;;;;;32.57;20.10;;;;;;;;;;5095405;28;20451;-73
2021/09/01 02:40:14;;;;;;;33.13;16.70;;;;;;;;;;5095919;28;20456;-73
2021/09/01 02:42:42;;;;;;;25.47;17.63;;;;;;;;;;5095049;28;20451;-73
2021/09/01 02:45:10;;;;;;;33.43;17.03;;;;;;;;;;5095252;28;20460;-73
2021/09/01 02:47:37;;;;;;;31.00;16.43;;;;;;;;;;5094385;28;20458;-71
2021/09/01 02:50:09;;;;;;;32.43;18.83;;;;;;;;;;5076283;28;20472;-73
2021/09/01 02:52:38;;;;;;;33.43;18.60;;;;;;;;;;5075981;28;20487;-73
2021/09/01 02:55:07;;;;;;;33.33;18.47;;;;;;;;;;5075675;28;20932;-73
2021/09/01 02:57:35;;;;;;;34.40;18.20;;;;;;;;;;5075351;28;20556;-73
2021/09/01 03:00:05;;;;;;;27.00;18.00;;;;;;;;;;5075345;28;20460;-71
2021/09/01 03:02:33;;;;;;;29.63;16.80;;;;;;;;;;5074854;28;20452;-74
2021/09/01 03:05:00;;;;;;;31.57;16.70;;;;;;;;;;5075299;28;20467;-74
2021/09/01 03:07:28;;;;;;;29.73;15.73;;;;;;;;;;5074966;28;20459;-74
2021/09/01 03:10:00;;;;;;;27.63;15.47;;;;;;;;;;5074940;28;20472;-74
2021/09/01 03:12:28;;;;;;;31.20;17.50;;;;;;;;;;5078674;28;20536;-74
2021/09/01 03:14:56;;;;;;;34.30;20.50;;;;;;;;;;5078263;28;20840;-74
2021/09/01 03:17:24;;;;;;;32.73;16.90;;;;;;;;;;5079217;28;20452;-74
2021/09/01 03:19:52;;;;;;;31.20;17.70;;;;;;;;;;5078545;28;20740;-74
2021/09/01 03:22:20;;;;;;;30.70;17.40;;;;;;;;;;5078293;28;20452;-74
2021/09/01 03:24:47;;;;;;;34.13;19.57;;;;;;;;;;5078543;28;20456;-73
2021/09/01 03:27:17;;;;;;;29.03;18.50;;;;;;;;;;5078803;28;20865;-73
2021/09/01 03:29:45;;;;;;;27.87;17.13;;;;;;;;;;5078719;28;20441;-73
2021/09/01 03:32:13;;;;;;;30.80;17.40;;;;;;;;;;5078805;28;20459;-73
2021/09/01 03:34:40;;;;;;;34.00;17.90;;;;;;;;;;5078423;28;20561;-74
2021/09/01 03:37:08;;;;;;;26.03;16.27;;;;;;;;;;5078389;28;20514;-72
2021/09/01 03:39:36;;;;;;;28.90;17.47;;;;;;;;;;5078499;28;20487;-74
2021/09/01 03:42:03;;;;;;;33.33;18.13;;;;;;;;;;5078812;28;20456;-74
2021/09/01 03:44:35;;;;;;;26.67;16.80;;;;;;;;;;5078275;28;20515;-74
2021/09/01 03:47:03;;;;;;;29.83;17.27;;;;;;;;;;5078588;28;20746;-73
2021/09/01 03:49:31;;;;;;;30.80;17.50;;;;;;;;;;5078698;28;20461;-73
2021/09/01 03:51:59;;;;;;;25.87;15.20;;;;;;;;;;5078374;28;20459;-74
2021/09/01 03:54:26;;;;;;;31.33;16.97;;;;;;;;;;5078700;28;20484;-73
2021/09/01 03:56:59;;;;;;;27.07;16.23;;;;;;;;;;5078669;28;20522;-74
2021/09/01 03:59:27;;;;;;;32.00;17.70;;;;;;;;;;5078735;28;20808;-73
2021/09/01 04:01:56;;;;;;;30.17;15.80;;;;;;;;;;5078372;28;20551;-73
2021/09/01 04:04:28;;;;;;;29.30;16.60;;;;;;;;;;5078184;28;20465;-73
2021/09/01 04:06:55;;;;;;;25.87;15.03;;;;;;;;;;5078278;28;20453;-73
2021/09/01 04:09:23;;;;;;;28.83;16.87;;;;;;;;;;5077996;28;20480;-74
2021/09/01 04:11:51;;;;;;;24.20;16.40;;;;;;;;;;5077885;28;20511;-73
2021/09/01 04:14:18;;;;;;;27.43;18.30;;;;;;;;;;5078251;28;20492;-73
2021/09/01 04:16:46;;;;;;;26.13;16.90;;;;;;;;;;5077907;28;20476;-73
2021/09/01 04:19:17;;;;;;;38.30;16.90;;;;;;;;;;5077628;28;20449;-74
2021/09/01 04:21:45;;;;;;;30.00;16.90;;;;;;;;;;5086442;28;20463;-73
2021/09/01 04:24:12;;;;;;;25.33;16.60;;;;;;;;;;5097531;28;20455;-74
2021/09/01 04:26:40;;;;;;;29.80;14.93;;;;;;;;;;5098045;28;20708;-73
2021/09/01 04:29:08;;;;;;;25.40;15.40;;;;;;;;;;5098302;28;20455;-73
2021/09/01 04:31:36;;;;;;;30.70;15.30;;;;;;;;;;5097839;28;20455;-73
2021/09/01 04:34:04;;;;;;;32.13;16.60;;;;;;;;;;5097415;28;20566;-74
2021/09/01 04:36:34;;;;;;;25.10;16.10;;;;;;;;;;5100863;28;20460;-74
2021/09/01 04:39:01;;;;;;;30.97;16.87;;;;;;;;;;5097761;28;20451;-74
2021/09/01 04:41:29;;;;;;;35.73;17.50;;;;;;;;;;5098080;28;20527;-73
2021/09/01 04:43:57;;;;;;;25.23;15.90;;;;;;;;;;5097753;28;20459;-74
2021/09/01 04:46:25;;;;;;;34.00;17.57;;;;;;;;;;5097692;28;20555;-73
2021/09/01 04:48:56;;;;;;;30.43;18.17;;;;;;;;;;5097180;28;20456;-73
2021/09/01 04:51:23;;;;;;;36.17;16.73;;;;;;;;;;5097886;28;20494;-73
2021/09/01 04:53:56;;;;;;;29.07;16.53;;;;;;;;;;5096469;28;20753;-74
2021/09/01 04:56:24;;;;;;;26.87;18.73;;;;;;;;;;5076415;28;20755;-74
2021/09/01 04:58:51;;;;;;;27.10;15.03;;;;;;;;;;5076854;28;20469;-74
2021/09/01 05:01:19;;;;;;;32.27;16.33;;;;;;;;;;5076608;28;20452;-73
2021/09/01 05:03:47;;;;;;;31.20;17.37;;;;;;;;;;5076598;28;20441;-74
2021/09/01 05:06:15;;;;;;;27.33;16.60;;;;;;;;;;5076983;28;20539;-73
2021/09/01 05:08:43;;;;;;;25.87;17.27;;;;;;;;;;5093101;28;20505;-74
2021/09/01 05:11:12;;;;;;;27.53;16.37;;;;;;;;;;5096506;28;20516;-73
2021/09/01 05:13:43;;;;;;;34.03;17.90;;;;;;;;;;5096261;28;20455;-73
2021/09/01 05:16:13;;;;;;;28.83;17.50;;;;;;;;;;5096317;28;20575;-73
2021/09/01 05:18:41;;;;;;;33.13;18.47;;;;;;;;;;5096634;28;20772;-72
2021/09/01 05:21:13;;;;;;;28.00;15.40;;;;;;;;;;5096057;28;20467;-73
2021/09/01 05:23:42;;;;;;;29.10;16.07;;;;;;;;;;5096857;28;20483;-72
2021/09/01 05:26:09;;;;;;;19.63;13.27;;;;;;;;;;5096787;28;20537;-74
2021/09/01 05:28:39;;;;;;;32.87;16.27;;;;;;;;;;5096070;28;20508;-74
2021/09/01 05:31:07;;;;;;;29.13;16.20;;;;;;;;;;5096236;28;20459;-73
2021/09/01 05:33:36;;;;;;;25.70;15.07;;;;;;;;;;5098247;28;20435;-73
2021/09/01 05:36:05;;;;;;;26.40;15.87;;;;;;;;;;5094679;28;20542;-74
2021/09/01 05:38:35;;;;;;;30.93;15.27;;;;;;;;;;5095749;28;20448;-73
2021/09/01 05:41:05;;;;;;;25.97;14.50;;;;;;;;;;5097637;28;20541;-73
2021/09/01 05:43:35;;;;;;;19.37;12.37;;;;;;;;;;5095986;28;20460;-74
2021/09/01 05:46:05;;;;;;;28.20;15.50;;;;;;;;;;5080992;28;20463;-73
2021/09/01 05:48:35;;;;;;;28.40;15.43;;;;;;;;;;5094591;28;20871;-73
2021/09/01 05:51:03;;;;;;;21.53;13.17;;;;;;;;;;5095616;28;20490;-73
2021/09/01 05:53:31;;;;;;;25.40;12.87;;;;;;;;;;5095593;28;20456;-73
2021/09/01 05:55:59;;;;;;;32.80;14.80;;;;;;;;;;5095126;28;20510;-73
2021/09/01 05:58:29;;;;;;;26.50;13.53;;;;;;;;;;5096014;28;20479;-72
2021/09/01 06:00:59;;;;;;;28.70;16.50;;;;;;;;;;5095600;28;20502;-73
2021/09/01 06:03:32;;;;;;;24.83;13.27;;;;;;;;;;5095462;28;20463;-72
2021/09/01 06:06:01;;;;;;;24.30;12.30;;;;;;;;;;5096193;28;20440;-72
2021/09/01 06:08:32;;;;;;;27.53;13.40;;;;;;;;;;5095476;28;20451;-73
2021/09/01 06:11:01;;;;;;;18.17;11.47;;;;;;;;;;5094948;28;20860;-72
2021/09/01 06:13:30;;;;;;;17.90;11.97;;;;;;;;;;5094002;28;20471;-72
2021/09/01 06:15:57;;;;;;;20.83;11.33;;;;;;;;;;5095313;28;20523;-72
2021/09/01 06:18:25;;;;;;;14.93;9.60;;;;;;;;;;5095433;28;20451;-72
2021/09/01 06:21:00;;;;;;;18.47;10.10;;;;;;;;;;5093999;28;20534;-72
2021/09/01 06:23:28;;;;;;;18.70;10.40;;;;;;;;;;5095798;28;20459;-73
2021/09/01 06:25:56;;;;;;;17.63;10.80;;;;;;;;;;5095229;28;20448;-72
2021/09/01 06:28:24;;;;;;;22.33;12.00;;;;;;;;;;5095785;28;20626;-71
2021/09/01 06:30:52;;;;;;;15.70;10.67;;;;;;;;;;5092946;28;20479;-72
2021/09/01 06:33:20;;;;;;;17.33;11.87;;;;;;;;;;5094748;28;20542;-73
2021/09/01 06:35:50;;;;;;;24.77;13.23;;;;;;;;;;5094813;28;20779;-73
2021/09/01 06:38:20;;;;;;;22.57;12.00;;;;;;;;;;5095749;28;20493;-73
2021/09/01 06:40:51;;;;;;;27.77;14.80;;;;;;;;;;5095326;28;20479;-72
2021/09/01 06:43:21;;;;;;;22.87;11.87;;;;;;;;;;5096271;28;20459;-72
2021/09/01 06:45:50;;;;;;;20.23;12.13;;;;;;;;;;5097341;28;20440;-74
2021/09/01 06:48:18;;;;;;;23.13;12.37;;;;;;;;;;5098010;28;20459;-74
2021/09/01 06:50:45;;;;;;;16.90;10.30;;;;;;;;;;5078947;28;20448;-73
2021/09/01 06:53:16;;;;;;;20.93;12.00;;;;;;;;;;5078958;28;20459;-73
2021/09/01 06:55:45;;;;;;;21.07;11.60;;;;;;;;;;5078752;28;20502;-73
2021/09/01 06:58:18;;;;;;;22.63;12.40;;;;;;;;;;5079379;28;20494;-72
2021/09/01 07:00:51;;;;;;;19.43;10.90;;;;;;;;;;5093231;28;20443;-72
2021/09/01 07:03:23;;;;;;;20.40;11.80;;;;;;;;;;5104900;28;20452;-74
2021/09/01 07:05:54;;;;;;;14.80;11.00;;;;;;;;;;5099302;28;20459;-73
2021/09/01 07:08:23;;;;;;;21.53;11.20;;;;;;;;;;5098005;28;20516;-73
2021/09/01 07:10:54;;;;;;;17.87;10.47;;;;;;;;;;5098063;28;20447;-73
2021/09/01 07:13:25;;;;;;;22.40;12.47;;;;;;;;;;5077888;28;20480;-73
2021/09/01 07:15:53;;;;;;;15.97;10.73;;;;;;;;;;5078761;28;20946;-73
2021/09/01 07:18:21;;;;;;;21.03;12.17;;;;;;;;;;5077941;28;20480;-73
2021/09/01 07:20:49;;;;;;;21.50;11.33;;;;;;;;;;5077431;28;20484;-73
2021/09/01 07:23:17;;;;;;;17.03;10.10;;;;;;;;;;5077359;28;20515;-73
2021/09/01 07:25:45;;;;;;;20.13;10.73;;;;;;;;;;5077809;28;20893;-73
2021/09/01 07:28:14;;;;;;;23.07;11.37;;;;;;;;;;5076901;28;20460;-73
2021/09/01 07:33:31;;;;;;;19.33;12.20;;;;;;;;;;5088422;28;20475;-73
2021/09/01 07:36:01;;;;;;;17.47;11.03;;;;;;;;;;5076789;28;20484;-74
2021/09/01 07:38:32;;;;;;;16.17;9.10;;;;;;;;;;5077853;28;20456;-74
2021/09/01 07:41:01;;;;;;;13.90;8.90;;;;;;;;;;5077663;28;20899;-74
2021/09/01 07:43:33;;;;;;;15.40;9.57;;;;;;;;;;5078292;28;20535;-73
2021/09/01 07:46:03;;;;;;;13.70;8.57;;;;;;;;;;5082759;28;20490;-73
2021/09/01 07:48:33;;;;;;;17.27;9.83;;;;;;;;;;5097259;28;21151;-72
2021/09/01 07:51:01;;;;;;;16.17;8.73;;;;;;;;;;5117264;28;20466;-75
2021/09/01 07:53:47;;;;;;;21.57;8.50;;;;;;;;;;5118494;28;20455;-74
2021/09/01 07:56:15;;;;;;;13.43;8.23;;;;;;;;;;5118314;28;20498;-74
2021/09/01 07:58:44;;;;;;;15.83;9.60;;;;;;;;;;5119557;28;20519;-74
2021/09/01 08:01:12;;;;;;;16.03;9.40;;;;;;;;;;5106188;28;20781;-74
2021/09/01 08:03:44;;;;;;;20.33;10.30;;;;;;;;;;5095803;28;20448;-74
2021/09/01 08:06:12;;;;;;;15.63;8.47;;;;;;;;;;5097518;28;20531;-74
2021/09/01 08:08:42;;;;;;;11.60;7.70;;;;;;;;;;5095430;28;20474;-74
2021/09/01 08:11:14;;;;;;;14.13;7.67;;;;;;;;;;5096269;28;20465;-74
2021/09/01 08:13:42;;;;;;;13.37;7.80;;;;;;;;;;5095879;28;20444;-72
2021/09/01 08:16:17;;;;;;;17.80;8.07;;;;;;;;;;5098146;28;20511;-75
2021/09/01 08:18:46;;;;;;;11.03;7.30;;;;;;;;;;5096660;28;20452;-73
2021/09/01 08:21:13;;;;;;;10.00;5.97;;;;;;;;;;5096228;28;20487;-73
2021/09/01 08:23:41;;;;;;;10.70;6.00;;;;;;;;;;5097899;28;20458;-72
2021/09/01 08:26:09;;;;;;;8.80;6.07;;;;;;;;;;5088254;28;20452;-74
2021/09/01 08:28:39;;;;;;;9.40;6.47;;;;;;;;;;5092407;28;20448;-73
2021/09/01 08:31:09;;;;;;;15.17;7.40;;;;;;;;;;5084471;28;20986;-74
2021/09/01 08:33:41;;;;;;;9.13;5.20;;;;;;;;;;5098015;28;20897;-72
2021/09/01 08:36:13;;;;;;;10.40;5.90;;;;;;;;;;5095188;28;20487;-73
2021/09/01 08:38:40;;;;;;;10.53;6.60;;;;;;;;;;5092942;28;20452;-73
2021/09/01 08:41:08;;;;;;;11.77;7.67;;;;;;;;;;5081160;28;20488;-73
2021/09/01 08:43:36;;;;;;;9.47;5.53;;;;;;;;;;5093163;28;20510;-73
2021/09/01 08:46:10;;;;;;;10.53;5.73;;;;;;;;;;5088832;28;20718;-73
2021/09/01 08:48:42;;;;;;;15.97;7.13;;;;;;;;;;5087568;28;20447;-73
2021/09/01 08:51:15;;;;;;;8.77;5.90;;;;;;;;;;5096096;28;20510;-74
2021/09/01 08:53:47;;;;;;;16.50;7.40;;;;;;;;;;5086874;28;20876;-73
2021/09/01 08:56:15;;;;;;;14.37;7.57;;;;;;;;;;5092052;28;20778;-73
2021/09/01 08:58:44;;;;;;;9.63;6.70;;;;;;;;;;5095496;28;20913;-73
2021/09/01 09:01:39;;;;;;;10.30;6.80;;;;;;;;;;5090291;28;20445;-73
2021/09/01 09:04:17;;;;;;;10.17;5.73;;;;;;;;;;5091960;28;20459;-73
2021/09/01 09:06:55;;;;;;;16.70;7.30;;;;;;;;;;5079218;28;20441;-73
2021/09/01 09:09:33;;;;;;;12.43;5.73;;;;;;;;;;5093283;28;20460;-73
2021/09/01 09:12:10;;;;;;;14.43;6.77;;;;;;;;;;5076777;28;20444;-75
2021/09/01 09:14:43;;;;;;;11.77;7.03;;;;;;;;;;5078140;28;20776;-73
2021/09/01 09:17:28;;;;;;;21.10;6.70;;;;;;;;;;5086799;28;20480;-74
2021/09/01 09:20:00;;;;;;;9.50;5.53;;;;;;;;;;5086059;28;20444;-74
2021/09/01 09:22:31;;;;;;;7.70;5.93;;;;;;;;;;5085555;28;20559;-74
2021/09/01 09:25:14;;;;;;;10.10;4.67;;;;;;;;;;5108812;28;20436;-73
2021/09/01 09:27:45;;;;;;;13.87;6.90;;;;;;;;;;5095893;28;21073;-73
2021/09/01 09:30:28;;;;;;;10.73;5.63;;;;;;;;;;5093132;28;21200;-73
2021/09/01 09:32:56;;;;;;;10.57;5.27;;;;;;;;;;5095051;28;20479;-73
2021/09/01 09:35:57;;;;;;;11.00;6.50;;;;;;;;;;5085742;28;20526;-75
2021/09/01 09:38:34;;;;;;;9.37;4.03;;;;;;;;;;5087588;28;20525;-73
2021/09/01 09:41:03;;;;;;;11.60;5.07;;;;;;;;;;5094227;28;20463;-72
2021/09/01 09:43:30;;;;;;;9.23;5.50;;;;;;;;;;5083538;28;20770;-74
2021/09/01 09:49:06;;;;;;;13.40;5.43;;;;;;;;;;5088448;28;20898;-74
2021/09/01 09:51:42;;;;;;;7.47;5.33;;;;;;;;;;5087960;28;20517;-74
2021/09/01 09:54:24;;;;;;;12.63;5.57;;;;;;;;;;5091068;28;20489;-74
2021/09/01 09:56:57;;;;;;;10.87;6.67;;;;;;;;;;5089738;28;20544;-74
2021/09/01 09:59:33;;;;;;;10.63;5.70;;;;;;;;;;5085765;28;20613;-74
2021/09/01 10:02:01;;;;;;;6.90;4.67;;;;;;;;;;5082999;28;20455;-75
2021/09/01 10:04:31;;;;;;;13.30;6.80;;;;;;;;;;5091312;28;20892;-72
2021/09/01 10:07:04;;;;;;;8.67;5.60;;;;;;;;;;5084372;28;20460;-74
2021/09/01 10:09:39;;;;;;;9.57;5.90;;;;;;;;;;5079587;28;20449;-73
2021/09/01 10:12:08;;;;;;;10.27;7.20;;;;;;;;;;5080660;28;20780;-73
2021/09/01 10:14:40;;;;;;;12.43;6.83;;;;;;;;;;5074256;28;20480;-73
2021/09/01 10:17:13;;;;;;;11.50;7.30;;;;;;;;;;5082557;28;20478;-74
2021/09/01 10:19:48;;;;;;;8.17;4.90;;;;;;;;;;5095632;28;20494;-73
2021/09/01 10:22:24;;;;;;;9.70;6.10;;;;;;;;;;5086874;28;20468;-74
2021/09/01 10:24:58;;;;;;;10.20;6.10;;;;;;;;;;5077895;28;20468;-73
2021/09/01 10:27:29;;;;;;;9.00;6.23;;;;;;;;;;5053147;28;20474;-74
2021/09/01 10:30:08;;;;;;;9.20;6.07;;;;;;;;;;5082802;28;20789;-74
2021/09/01 10:32:43;;;;;;;8.43;5.50;;;;;;;;;;5086238;28;20451;-73
2021/09/01 10:35:32;;;;;;;8.53;6.40;;;;;;;;;;5095677;28;20479;-73
2021/09/01 10:38:06;;;;;;;20.20;7.80;;;;;;;;;;5088807;28;20475;-74
2021/09/01 10:40:48;;;;;;;8.00;6.00;;;;;;;;;;5088858;28;20477;-74
2021/09/01 10:43:22;;;;;;;13.80;6.30;;;;;;;;;;5094969;28;20836;-73
2021/09/01 10:46:03;;;;;;;10.23;5.80;;;;;;;;;;5097602;28;20443;-73
2021/09/01 10:48:31;;;;;;;7.57;5.80;;;;;;;;;;5088858;28;20459;-73
2021/09/01 10:51:02;;;;;;;7.50;5.37;;;;;;;;;;5096325;28;20444;-75
2021/09/01 10:53:31;;;;;;;8.60;4.20;;;;;;;;;;5092763;28;20531;-75
2021/09/01 10:56:05;;;;;;;6.90;5.00;;;;;;;;;;5082045;28;20444;-74
2021/09/01 10:58:38;;;;;;;9.30;5.10;;;;;;;;;;5105239;28;21043;-74
2021/09/01 11:01:17;;;;;;;8.37;5.57;;;;;;;;;;5085756;28;20506;-72
2021/09/01 11:03:51;;;;;;;8.77;6.70;;;;;;;;;;5078408;28;20525;-73
2021/09/01 11:06:31;;;;;;;11.33;5.20;;;;;;;;;;5088821;28;20470;-72
2021/09/01 11:09:19;;;;;;;9.67;6.17;;;;;;;;;;5096493;28;20459;-72
2021/09/01 11:11:53;;;;;;;9.27;5.13;;;;;;;;;;5077278;28;20917;-73
2021/09/01 11:14:42;;;;;;;14.70;6.03;;;;;;;;;;5077029;28;20490;-73
2021/09/01 11:17:12;;;;;;;11.20;7.77;;;;;;;;;;5077724;28;20480;-73
2021/09/01 11:19:43;;;;;;;11.63;6.10;;;;;;;;;;5081754;28;21397;-74
2021/09/01 11:22:17;;;;;;;10.70;6.60;;;;;;;;;;5079200;28;20470;-73
2021/09/01 11:24:47;;;;;;;9.03;6.53;;;;;;;;;;5079199;28;20439;-72
2021/09/01 11:27:18;;;;;;;8.43;5.60;;;;;;;;;;5075995;28;20452;-71
2021/09/01 11:29:49;;;;;;;11.63;6.27;;;;;;;;;;5091866;28;20854;-72
2021/09/01 11:32:17;;;;;;;9.60;5.57;;;;;;;;;;5096445;28;20483;-73
2021/09/01 11:34:47;;;;;;;7.93;5.17;;;;;;;;;;5089851;28;20448;-73
2021/09/01 11:37:19;;;;;;;11.27;6.27;;;;;;;;;;5096047;28;20495;-73
2021/09/01 11:39:52;;;;;;;8.20;5.13;;;;;;;;;;5076904;28;20469;-74
2021/09/01 11:42:21;;;;;;;9.40;4.53;;;;;;;;;;5077218;28;20727;-72
2021/09/01 11:44:57;;;;;;;6.63;5.40;;;;;;;;;;5087372;28;20579;-72
2021/09/01 11:47:25;;;;;;;9.60;6.37;;;;;;;;;;5096495;28;20475;-72
2021/09/01 11:49:53;;;;;;;5.20;4.17;;;;;;;;;;5090657;28;20484;-73
2021/09/01 11:52:29;;;;;;;9.57;4.50;;;;;;;;;;5086523;28;20679;-72
2021/09/01 11:54:57;;;;;;;7.30;3.70;;;;;;;;;;5088275;28;21083;-72
2021/09/01 11:57:28;;;;;;;13.50;6.63;;;;;;;;;;5087523;28;20507;-71
2021/09/01 12:00:00;;;;;;;5.60;4.60;;;;;;;;;;5076582;28;20449;-73
2021/09/01 12:02:29;;;;;;;6.80;4.57;;;;;;;;;;5086166;28;20877;-73
2021/09/01 12:04:57;;;;;;;7.33;5.60;;;;;;;;;;5076344;28;20727;-72
2021/09/01 12:07:31;;;;;;;9.00;4.53;;;;;;;;;;5077454;28;20543;-70
2021/09/01 12:10:01;;;;;;;7.03;5.70;;;;;;;;;;5090432;28;20790;-71
2021/09/01 12:12:34;;;;;;;9.80;4.57;;;;;;;;;;5096513;28;20447;-71
2021/09/01 12:15:09;;;;;;;9.17;4.90;;;;;;;;;;5098185;28;20455;-71
2021/09/01 12:17:44;;;;;;;12.03;5.67;;;;;;;;;;5095303;28;20765;-72
2021/09/01 12:20:17;;;;;;;8.00;5.70;;;;;;;;;;5099548;28;20470;-71
2021/09/01 12:22:47;;;;;;;12.50;6.03;;;;;;;;;;5101859;28;20502;-72
2021/09/01 12:25:16;;;;;;;7.43;5.93;;;;;;;;;;5107050;28;20912;-73
2021/09/01 12:27:59;;;;;;;5.20;3.93;;;;;;;;;;5091509;28;20810;-72
2021/09/01 12:33:32;;;;;;;9.27;6.40;;;;;;;;;;5090341;28;20456;-73
2021/09/01 12:36:07;;;;;;;10.27;6.90;;;;;;;;;;5080639;28;20567;-72
2021/09/01 12:38:35;;;;;;;12.53;6.50;;;;;;;;;;5078657;28;20488;-73
2021/09/01 12:41:05;;;;;;;9.40;5.10;;;;;;;;;;5095125;28;20459;-73
2021/09/01 12:43:46;;;;;;;7.50;5.97;;;;;;;;;;5086947;28;20444;-73
2021/09/01 12:46:28;;;;;;;7.97;6.50;;;;;;;;;;5080002;28;20546;-73
2021/09/01 12:49:04;;;;;;;10.90;5.50;;;;;;;;;;5085345;28;20475;-73
2021/09/01 12:51:43;;;;;;;8.37;5.80;;;;;;;;;;5091703;28;21011;-73
2021/09/01 12:54:14;;;;;;;11.43;7.03;;;;;;;;;;5077400;28;20448;-74
2021/09/01 12:56:51;;;;;;;9.07;5.90;;;;;;;;;;5091345;28;20448;-74
2021/09/01 12:59:19;;;;;;;8.80;7.90;;;;;;;;;;5093809;28;20478;-73
2021/09/01 13:01:52;;;;;;;8.90;6.57;;;;;;;;;;5086106;28;20452;-74
2021/09/01 13:04:23;;;;;;;8.60;6.10;;;;;;;;;;5084159;28;20517;-74
2021/09/01 13:07:07;;;;;;;9.47;6.20;;;;;;;;;;5090671;28;20723;-73
2021/09/01 13:10:10;;;;;;;16.87;6.27;;;;;;;;;;5091305;28;20500;-72
2021/09/01 13:12:50;;;;;;;10.60;5.03;;;;;;;;;;5091462;28;20910;-73
2021/09/01 13:15:23;;;;;;;7.77;5.07;;;;;;;;;;5097758;28;20455;-75
2021/09/01 13:17:53;;;;;;;7.00;5.23;;;;;;;;;;5097505;28;20480;-74
2021/09/01 13:20:24;;;;;;;8.77;6.50;;;;;;;;;;5077599;28;20456;-73
2021/09/01 13:23:00;;;;;;;9.57;6.50;;;;;;;;;;5076388;28;20453;-75
2021/09/01 13:25:41;;;;;;;7.13;5.23;;;;;;;;;;5077573;28;20456;-74
2021/09/01 13:28:09;;;;;;;8.13;7.30;;;;;;;;;;5076770;28;20535;-72
2021/09/01 13:30:38;;;;;;;8.30;5.60;;;;;;;;;;5077043;28;20445;-73
2021/09/01 13:33:08;;;;;;;12.37;7.60;;;;;;;;;;5077079;28;20878;-73
2021/09/01 13:35:39;;;;;;;9.87;6.97;;;;;;;;;;5086839;28;20462;-73
2021/09/01 13:38:08;;;;;;;13.30;6.73;;;;;;;;;;5097268;28;20562;-73
2021/09/01 13:40:37;;;;;;;9.63;7.13;;;;;;;;;;5085441;28;20460;-72
2021/09/01 13:43:05;;;;;;;9.03;5.43;;;;;;;;;;5075604;28;20552;-72
2021/09/01 13:45:41;;;;;;;7.27;5.90;;;;;;;;;;5075960;28;20586;-72
2021/09/01 13:48:11;;;;;;;11.40;7.37;;;;;;;;;;5075323;28;20452;-73
2021/09/01 13:50:41;;;;;;;15.90;9.20;;;;;;;;;;5077174;28;20547;-72
2021/09/01 13:53:10;;;;;;;8.23;7.00;;;;;;;;;;5095548;28;20455;-72
2021/09/01 13:55:42;;;;;;;8.70;5.43;;;;;;;;;;5096779;28;20466;-73
2021/09/01 13:58:09;;;;;;;11.10;7.80;;;;;;;;;;5094017;28;20549;-72
2021/09/01 14:00:38;;;;;;;9.37;5.53;;;;;;;;;;5096215;28;20471;-72
2021/09/01 14:03:18;;;;;;;10.10;5.90;;;;;;;;;;5081130;28;20483;-73
2021/09/01 14:08:55;;;;;;;10.70;6.50;;;;;;;;;;5068913;28;20444;-72
2021/09/01 14:11:29;;;;;;;9.40;6.73;;;;;;;;;;5078153;28;20615;-73
2021/09/01 14:13:57;;;;;;;6.67;5.30;;;;;;;;;;5099581;28;20450;-72
2021/09/01 14:16:25;;;;;;;12.37;7.93;;;;;;;;;;5098437;28;20508;-73
2021/09/01 14:18:53;;;;;;;9.07;5.37;;;;;;;;;;5097760;28;20768;-73
2021/09/01 14:21:32;;;;;;;8.43;6.60;;;;;;;;;;5095657;28;20463;-74
2021/09/01 14:24:00;;;;;;;6.83;5.00;;;;;;;;;;5075572;28;20786;-73
2021/09/01 14:26:27;;;;;;;6.67;5.30;;;;;;;;;;5074571;28;20517;-73
2021/09/01 14:28:57;;;;;;;9.03;6.67;;;;;;;;;;5073473;28;20492;-73
2021/09/01 14:31:25;;;;;;;8.83;5.60;;;;;;;;;;5090163;28;20484;-72
2021/09/01 14:34:06;;;;;;;7.77;6.00;;;;;;;;;;5086409;28;20459;-72
2021/09/01 14:36:45;;;;;;;9.20;5.63;;;;;;;;;;5080450;28;20478;-72
2021/09/01 14:39:13;;;;;;;8.30;5.07;;;;;;;;;;5093529;28;20499;-72
2021/09/01 14:41:42;;;;;;;7.90;5.67;;;;;;;;;;5093749;28;20444;-72
2021/09/01 14:44:17;;;;;;;6.60;5.40;;;;;;;;;;5085771;28;20601;-73
2021/09/01 14:46:50;;;;;;;8.87;5.93;;;;;;;;;;5092479;28;20455;-72
2021/09/01 14:52:06;;;;;;;10.40;5.77;;;;;;;;;;5073430;28;20451;-72
2021/09/01 14:54:38;;;;;;;10.13;5.90;;;;;;;;;;5082363;28;20458;-72
2021/09/01 14:57:18;;;;;;;7.30;5.70;;;;;;;;;;5085134;28;20452;-75
2021/09/01 14:59:48;;;;;;;11.30;5.50;;;;;;;;;;5081373;28;20465;-73
2021/09/01 15:02:15;;;;;;;9.60;5.93;;;;;;;;;;5091383;28;20517;-73